createdAt,value
2017-11-05T00:01:31.420Z,84.20
2017-11-05T00:03:59.797Z,84.90
2017-11-05T00:06:27.352Z,84.10
2017-11-05T00:08:55.676Z,84.50
2017-11-05T00:11:23.232Z,84.00
2017-11-05T00:13:51.547Z,84.80
2017-11-05T00:16:19.137Z,83.80
2017-11-05T00:18:47.513Z,84.50
2017-11-05T00:21:15.090Z,83.50
2017-11-05T00:23:42.641Z,83.20
2017-11-05T00:26:10.279Z,82.50
2017-11-05T00:28:37.826Z,83.70
2017-11-05T00:31:05.363Z,83.80
2017-11-05T00:33:32.941Z,83.70
2017-11-05T00:36:00.494Z,84.10
2017-11-05T00:38:28.032Z,83.60
2017-11-05T00:40:55.607Z,83.90
2017-11-05T00:43:23.937Z,84.30
2017-11-05T00:45:51.494Z,83.60
2017-11-05T00:48:19.053Z,83.40
2017-11-05T00:50:47.361Z,84.10
2017-11-05T00:53:14.900Z,83.20
2017-11-05T00:55:42.460Z,83.90
2017-11-05T00:58:09.983Z,83.70
2017-11-05T01:00:37.555Z,83.40
2017-11-05T01:03:05.111Z,84.10
2017-11-05T01:05:32.656Z,83.80
2017-11-05T01:08:00.199Z,83.30
2017-11-05T01:10:27.766Z,83.50
2017-11-05T01:12:55.296Z,83.40
2017-11-05T01:15:22.822Z,83.10
2017-11-05T01:17:50.377Z,83.30
2017-11-05T01:20:17.912Z,83.60
2017-11-05T01:22:45.454Z,83.30
2017-11-05T01:25:13.018Z,83.10
2017-11-05T01:27:40.549Z,83.40
2017-11-05T01:30:08.089Z,83.80
2017-11-05T01:32:35.625Z,83.10
2017-11-05T01:35:03.145Z,83.60
2017-11-05T01:37:30.677Z,83.60
2017-11-05T01:39:58.227Z,84.40
2017-11-05T01:42:25.754Z,84.40
2017-11-05T01:44:53.298Z,84.40
2017-11-05T01:47:21.860Z,85.40
2017-11-05T01:49:50.165Z,85.30
2017-11-05T01:52:17.696Z,84.30
2017-11-05T01:54:45.258Z,85.10
2017-11-05T01:57:15.301Z,85.30
2017-11-05T01:59:44.226Z,84.70
2017-11-05T02:02:13.864Z,84.70
2017-11-05T02:04:44.351Z,85.90
2017-11-05T02:07:11.881Z,85.70
2017-11-05T02:09:39.443Z,85.90
2017-11-05T02:12:06.995Z,87.10
2017-11-05T02:14:34.560Z,86.70
2017-11-05T02:17:02.116Z,87.50
2017-11-05T02:19:29.661Z,88.10
2017-11-05T02:21:57.192Z,88.50
2017-11-05T02:24:24.773Z,88.40
2017-11-05T02:26:53.077Z,89.80
2017-11-05T02:29:20.614Z,88.90
2017-11-05T02:31:48.171Z,89.30
2017-11-05T02:34:15.707Z,89.80
2017-11-05T02:36:43.246Z,90.20
2017-11-05T02:39:10.798Z,90.00
2017-11-05T02:41:38.347Z,90.20
2017-11-05T02:44:05.883Z,90.40
2017-11-05T02:46:33.427Z,90.40
2017-11-05T02:49:01.001Z,90.50
2017-11-05T02:51:28.523Z,90.70
2017-11-05T02:53:56.079Z,90.60
2017-11-05T02:56:23.622Z,90.60
2017-11-05T02:58:51.159Z,90.60
2017-11-05T03:01:25.304Z,90.60
2017-11-05T03:03:55.995Z,91.10
2017-11-05T03:06:23.516Z,90.70
2017-11-05T03:08:51.080Z,90.80
2017-11-05T03:11:18.628Z,90.90
2017-11-05T03:13:46.162Z,90.50
2017-11-05T03:16:13.715Z,91.00
2017-11-05T03:18:41.264Z,91.30
2017-11-05T03:21:08.826Z,92.30
2017-11-05T03:23:37.165Z,93.20
2017-11-05T03:26:04.699Z,93.20
2017-11-05T03:28:32.224Z,93.60
2017-11-05T03:30:59.812Z,93.60
2017-11-05T03:33:28.122Z,94.20
2017-11-05T03:35:56.431Z,94.50
2017-11-05T03:38:27.249Z,94.00
2017-11-05T03:40:54.772Z,94.10
2017-11-05T03:43:22.308Z,94.30
2017-11-05T03:45:49.887Z,94.40
2017-11-05T03:48:18.275Z,95.00
2017-11-05T03:50:46.576Z,95.20
2017-11-05T03:53:14.138Z,94.80
2017-11-05T03:55:41.663Z,94.70
2017-11-05T03:58:09.191Z,94.80
2017-11-05T04:00:36.786Z,95.20
2017-11-05T04:03:04.318Z,94.90
2017-11-05T04:05:31.849Z,95.20
2017-11-05T04:07:59.515Z,95.00
2017-11-05T04:10:27.051Z,95.30
2017-11-05T04:12:54.595Z,95.20
2017-11-05T04:15:22.175Z,95.40
2017-11-05T04:17:50.485Z,96.00
2017-11-05T04:20:18.025Z,95.50
2017-11-05T04:22:48.250Z,95.70
2017-11-05T04:25:15.835Z,95.90
2017-11-05T04:27:44.144Z,96.70
2017-11-05T04:30:11.756Z,96.00
2017-11-05T04:32:40.168Z,96.40
2017-11-05T04:35:12.214Z,95.90
2017-11-05T04:37:42.655Z,96.00
2017-11-05T04:40:10.233Z,95.90
2017-11-05T04:42:37.796Z,96.20
2017-11-05T04:45:05.346Z,96.20
2017-11-05T04:47:32.870Z,96.20
2017-11-05T04:50:00.464Z,96.30
2017-11-05T04:52:28.234Z,96.40
2017-11-05T04:54:56.643Z,96.90
2017-11-05T04:57:24.275Z,96.50
2017-11-05T04:59:51.864Z,96.60
2017-11-05T05:02:19.399Z,96.70
2017-11-05T05:04:46.960Z,96.90
2017-11-05T05:07:14.502Z,96.90
2017-11-05T05:09:42.032Z,97.10
2017-11-05T05:12:09.595Z,97.40
2017-11-05T05:14:37.129Z,97.60
2017-11-05T05:17:06.387Z,97.70
2017-11-05T05:19:34.038Z,97.50
2017-11-05T05:22:01.578Z,97.90
2017-11-05T05:24:29.107Z,98.00
2017-11-05T05:26:56.670Z,98.10
2017-11-05T05:29:24.232Z,98.20
2017-11-05T05:31:51.784Z,98.40
2017-11-05T05:34:19.337Z,98.30
2017-11-05T05:36:46.867Z,98.30
2017-11-05T05:39:14.395Z,98.70
2017-11-05T05:41:41.958Z,98.90
2017-11-05T05:44:09.514Z,99.00
2017-11-05T05:46:37.052Z,99.10
2017-11-05T05:49:04.620Z,99.60
2017-11-05T05:51:32.183Z,99.50
2017-11-05T05:54:00.509Z,99.70
2017-11-05T05:56:28.086Z,99.60
2017-11-05T05:59:00.386Z,99.90
2017-11-05T06:01:30.698Z,99.60
2017-11-05T06:04:00.734Z,99.90
2017-11-05T06:06:30.685Z,99.90
2017-11-05T06:08:58.672Z,99.90
2017-11-05T06:11:26.215Z,99.90
2017-11-05T06:13:54.408Z,99.90
2017-11-05T06:16:22.823Z,99.90
2017-11-05T06:18:50.404Z,99.90
2017-11-05T06:21:18.007Z,99.90
2017-11-05T06:23:45.552Z,99.90
2017-11-05T06:26:13.119Z,99.90
2017-11-05T06:28:40.691Z,99.90
2017-11-05T06:31:08.241Z,99.90
2017-11-05T06:33:35.792Z,99.90
2017-11-05T06:36:04.123Z,99.90
2017-11-05T06:38:31.673Z,99.90
2017-11-05T06:40:59.233Z,99.90
2017-11-05T06:43:27.571Z,99.90
2017-11-05T06:45:55.108Z,99.90
2017-11-05T06:48:22.668Z,99.90
2017-11-05T06:50:50.241Z,99.90
2017-11-05T06:53:17.820Z,99.90
2017-11-05T06:55:45.376Z,99.90
2017-11-05T06:58:12.975Z,99.90
2017-11-05T07:00:41.371Z,99.90
2017-11-05T07:03:08.999Z,99.90
2017-11-05T07:05:36.668Z,99.90
2017-11-05T07:08:04.260Z,99.90
2017-11-05T07:10:31.804Z,99.90
2017-11-05T07:12:59.459Z,99.90
2017-11-05T07:15:27.083Z,99.90
2017-11-05T07:17:54.713Z,99.90
2017-11-05T07:20:23.373Z,99.90
2017-11-05T07:22:51.170Z,99.90
2017-11-05T07:25:18.797Z,99.90
2017-11-05T07:27:46.490Z,99.90
2017-11-05T07:30:15.310Z,99.90
2017-11-05T07:32:43.298Z,99.90
2017-11-05T07:35:10.944Z,99.90
2017-11-05T07:37:39.330Z,99.90
2017-11-05T07:40:06.956Z,99.90
2017-11-05T07:42:34.518Z,99.90
2017-11-05T07:45:03.339Z,99.90
2017-11-05T07:47:31.079Z,99.90
2017-11-05T07:49:58.642Z,99.90
2017-11-05T07:52:26.270Z,99.90
2017-11-05T07:54:53.946Z,99.90
2017-11-05T07:57:21.564Z,99.90
2017-11-05T07:59:49.180Z,99.90
2017-11-05T08:02:16.869Z,99.90
2017-11-05T08:04:44.533Z,99.90
2017-11-05T08:07:12.132Z,99.90
2017-11-05T08:09:39.685Z,99.90
2017-11-05T08:12:07.256Z,99.90
2017-11-05T08:14:34.841Z,99.90
2017-11-05T08:17:02.493Z,99.90
2017-11-05T08:19:30.916Z,99.90
2017-11-05T08:21:58.590Z,99.90
2017-11-05T08:24:26.169Z,99.90
2017-11-05T08:26:53.731Z,99.90
2017-11-05T08:29:21.322Z,99.90
2017-11-05T08:31:48.865Z,99.90
2017-11-05T08:34:16.426Z,99.90
2017-11-05T08:36:45.351Z,99.90
2017-11-05T08:39:13.207Z,99.90
2017-11-05T08:41:40.964Z,99.90
2017-11-05T08:44:08.628Z,99.90
2017-11-05T08:46:36.157Z,99.90
2017-11-05T08:49:03.708Z,99.80
2017-11-05T08:51:31.302Z,99.40
2017-11-05T08:53:59.607Z,97.00
2017-11-05T08:56:27.224Z,96.90
2017-11-05T08:58:54.758Z,96.10
2017-11-05T09:01:23.136Z,97.00
2017-11-05T09:03:50.681Z,96.70
2017-11-05T09:06:18.198Z,96.80
2017-11-05T09:08:45.759Z,96.80
2017-11-05T09:11:13.331Z,96.40
2017-11-05T09:13:40.875Z,96.50
2017-11-05T09:16:08.400Z,96.10
2017-11-05T09:18:35.962Z,95.60
2017-11-05T09:21:03.509Z,95.70
2017-11-05T09:23:31.042Z,96.10
2017-11-05T09:25:58.601Z,96.00
2017-11-05T09:28:26.153Z,96.30
2017-11-05T09:30:53.958Z,96.70
2017-11-05T09:33:22.452Z,96.90
2017-11-05T09:35:49.988Z,96.40
2017-11-05T09:38:17.519Z,96.30
2017-11-05T09:40:45.089Z,95.90
2017-11-05T09:43:12.645Z,96.40
2017-11-05T09:45:40.161Z,96.40
2017-11-05T09:48:07.720Z,96.20
2017-11-05T09:50:35.232Z,96.50
2017-11-05T09:53:03.553Z,96.10
2017-11-05T09:55:31.125Z,96.30
2017-11-05T09:57:59.102Z,95.50
2017-11-05T10:00:26.714Z,96.00
2017-11-05T10:02:54.282Z,95.90
2017-11-05T10:05:22.040Z,95.80
2017-11-05T10:07:50.715Z,95.80
2017-11-05T10:10:18.552Z,95.90
2017-11-05T10:12:47.784Z,95.60
2017-11-05T10:15:15.972Z,95.40
2017-11-05T10:17:44.510Z,95.60
2017-11-05T10:20:12.061Z,95.50
2017-11-05T10:22:39.961Z,95.40
2017-11-05T10:25:21.368Z,95.70
2017-11-05T10:27:49.256Z,95.60
2017-11-05T10:30:27.747Z,95.40
2017-11-05T10:32:56.224Z,95.50
2017-11-05T10:35:25.706Z,95.10
2017-11-05T10:37:53.809Z,95.10
2017-11-05T10:40:22.575Z,94.70
2017-11-05T10:42:50.965Z,94.70
2017-11-05T10:45:20.184Z,94.40
2017-11-05T10:47:48.064Z,94.60
2017-11-05T10:50:16.797Z,94.90
2017-11-05T10:52:48.614Z,95.00
2017-11-05T10:55:17.736Z,94.90
2017-11-05T10:57:45.699Z,94.90
2017-11-05T11:00:15.556Z,94.70
2017-11-05T11:02:44.022Z,94.90
2017-11-05T11:05:11.594Z,94.40
2017-11-05T11:07:40.259Z,94.00
2017-11-05T11:10:07.989Z,93.60
2017-11-05T11:12:36.448Z,93.30
2017-11-05T11:15:03.981Z,93.60
2017-11-05T11:17:33.919Z,93.70
2017-11-05T11:20:01.687Z,93.50
2017-11-05T11:22:29.236Z,93.60
2017-11-05T11:24:59.144Z,93.40
2017-11-05T11:27:28.394Z,93.10
2017-11-05T11:29:56.722Z,92.80
2017-11-05T11:32:24.415Z,93.40
2017-11-05T11:34:51.977Z,93.00
2017-11-05T11:37:19.510Z,92.40
2017-11-05T11:39:47.763Z,92.80
2017-11-05T11:42:15.435Z,92.90
2017-11-05T11:44:43.743Z,92.80
2017-11-05T11:47:11.265Z,92.80
2017-11-05T11:49:39.270Z,92.80
2017-11-05T11:52:06.787Z,92.30
2017-11-05T11:54:34.378Z,91.80
2017-11-05T11:57:01.922Z,91.70
2017-11-05T11:59:29.429Z,91.90
2017-11-05T12:01:56.966Z,91.70
2017-11-05T12:04:24.533Z,91.80
2017-11-05T12:06:52.066Z,91.30
2017-11-05T12:09:19.595Z,90.90
2017-11-05T12:11:47.159Z,90.80
2017-11-05T12:14:14.693Z,91.10
2017-11-05T12:16:42.211Z,91.30
2017-11-05T12:19:09.769Z,91.10
2017-11-05T12:21:37.311Z,91.40
2017-11-05T12:24:04.833Z,91.20
2017-11-05T12:26:33.163Z,91.20
2017-11-05T12:29:00.706Z,91.30
2017-11-05T12:31:28.260Z,90.90
2017-11-05T12:33:55.804Z,90.60
2017-11-05T12:36:23.343Z,90.50
2017-11-05T12:38:50.896Z,90.30
2017-11-05T12:41:18.519Z,90.30
2017-11-05T12:43:46.118Z,90.20
2017-11-05T12:46:13.737Z,89.60
2017-11-05T12:48:42.199Z,89.50
2017-11-05T12:51:09.737Z,88.40
2017-11-05T12:53:37.279Z,89.00
2017-11-05T12:56:04.835Z,89.40
2017-11-05T12:58:32.373Z,89.00
2017-11-05T13:00:59.923Z,89.10
2017-11-05T13:03:27.615Z,87.60
2017-11-05T13:05:55.163Z,85.80
2017-11-05T13:08:22.682Z,86.20
2017-11-05T13:10:51.023Z,87.70
2017-11-05T13:13:18.594Z,87.80
2017-11-05T13:15:46.132Z,86.50
2017-11-05T13:18:14.463Z,87.00
2017-11-05T13:20:41.993Z,86.40
2017-11-05T13:23:09.548Z,85.60
2017-11-05T13:25:37.104Z,86.80
2017-11-05T13:28:04.626Z,86.80
2017-11-05T13:30:32.144Z,87.30
2017-11-05T13:32:59.722Z,87.00
2017-11-05T13:35:27.260Z,85.20
2017-11-05T13:37:54.813Z,84.90
2017-11-05T13:40:22.363Z,85.80
2017-11-05T13:42:49.916Z,85.00
2017-11-05T13:45:17.546Z,84.20
2017-11-05T13:47:45.150Z,83.50
2017-11-05T13:50:12.822Z,84.90
2017-11-05T13:52:40.372Z,84.60
2017-11-05T13:55:07.946Z,83.30
2017-11-05T13:57:35.473Z,85.20
2017-11-05T14:00:03.012Z,85.30
2017-11-05T14:02:30.734Z,84.50
2017-11-05T14:04:58.264Z,85.30
2017-11-05T14:07:25.845Z,83.10
2017-11-05T14:09:53.419Z,83.70
2017-11-05T14:12:20.969Z,85.70
2017-11-05T14:14:49.271Z,87.10
2017-11-05T14:17:16.925Z,86.10
2017-11-05T14:19:44.527Z,84.30
2017-11-05T14:22:12.852Z,85.50
2017-11-05T14:24:40.427Z,84.70
2017-11-05T14:27:07.975Z,86.30
2017-11-05T14:29:35.508Z,84.60
2017-11-05T14:32:03.076Z,84.60
2017-11-05T14:34:31.373Z,84.90
2017-11-05T14:36:59.684Z,85.60
2017-11-05T14:39:30.809Z,85.90
2017-11-05T14:41:58.348Z,83.80
2017-11-05T14:44:25.894Z,84.90
2017-11-05T14:46:53.456Z,85.20
2017-11-05T14:49:21.009Z,85.80
2017-11-05T14:51:49.328Z,85.80
2017-11-05T14:54:16.891Z,84.40
2017-11-05T14:56:44.443Z,85.00
2017-11-05T14:59:12.036Z,85.40
2017-11-05T15:01:39.591Z,84.50
2017-11-05T15:04:07.312Z,85.20
2017-11-05T15:06:34.946Z,84.70
2017-11-05T15:09:03.317Z,84.80
2017-11-05T15:11:31.648Z,84.70
2017-11-05T15:13:59.188Z,84.80
2017-11-05T15:16:27.048Z,85.80
2017-11-05T15:18:54.599Z,83.90
2017-11-05T15:21:22.123Z,84.40
2017-11-05T15:23:49.698Z,85.20
2017-11-05T15:26:18.071Z,85.90
2017-11-05T15:28:45.647Z,85.00
2017-11-05T15:31:13.215Z,85.60
2017-11-05T15:33:40.758Z,85.70
2017-11-05T15:36:08.293Z,86.40
2017-11-05T15:38:35.851Z,86.70
2017-11-05T15:41:03.405Z,86.50
2017-11-05T15:43:30.980Z,86.00
2017-11-05T15:45:59.347Z,86.30
2017-11-05T15:48:27.648Z,87.00
2017-11-05T15:50:55.210Z,86.10
2017-11-05T15:53:22.801Z,86.50
2017-11-05T15:55:51.146Z,87.50
2017-11-05T15:58:18.713Z,86.70
2017-11-05T16:00:47.053Z,88.00
2017-11-05T16:03:14.584Z,87.10
2017-11-05T16:05:42.131Z,87.90
2017-11-05T16:08:09.687Z,87.60
2017-11-05T16:10:37.227Z,87.30
2017-11-05T16:13:04.809Z,87.60
2017-11-05T16:15:32.365Z,87.80
2017-11-05T16:17:59.903Z,88.30
2017-11-05T16:20:27.442Z,88.40
2017-11-05T16:22:54.999Z,88.50
2017-11-05T16:25:22.532Z,88.90
2017-11-05T16:27:50.084Z,89.10
2017-11-05T16:30:17.638Z,89.50
2017-11-05T16:32:45.179Z,89.00
2017-11-05T16:35:12.708Z,89.50
2017-11-05T16:37:40.270Z,89.30
2017-11-05T16:40:07.792Z,89.40
2017-11-05T16:42:35.319Z,90.40
2017-11-05T16:45:03.661Z,90.10
2017-11-05T16:47:31.203Z,90.10
2017-11-05T16:49:58.758Z,90.10
2017-11-05T16:52:26.323Z,90.00
2017-11-05T16:54:53.855Z,90.20
2017-11-05T16:57:21.383Z,90.00
2017-11-05T16:59:48.942Z,89.90
2017-11-05T17:02:16.471Z,89.50
2017-11-05T17:04:44.031Z,89.50
2017-11-05T17:07:11.623Z,90.10
2017-11-05T17:09:39.197Z,89.20
2017-11-05T17:12:06.732Z,89.70
2017-11-05T17:14:34.413Z,90.00
2017-11-05T17:17:03.639Z,89.90
2017-11-05T17:19:33.667Z,90.00
2017-11-05T17:22:01.749Z,90.20
2017-11-05T17:24:29.319Z,90.00
2017-11-05T17:26:57.717Z,89.40
2017-11-05T17:29:25.265Z,90.00
2017-11-05T17:31:52.848Z,89.50
2017-11-05T17:34:24.169Z,89.10
2017-11-05T17:36:58.269Z,89.60
2017-11-05T17:39:28.608Z,89.00
2017-11-05T17:41:56.933Z,90.00
2017-11-05T17:44:26.821Z,89.40
2017-11-05T17:46:54.587Z,90.00
2017-11-05T17:49:23.558Z,89.90
2017-11-05T17:51:51.086Z,89.50
2017-11-05T17:54:18.642Z,89.10
2017-11-05T17:56:47.760Z,89.20
2017-11-05T17:59:17.187Z,89.80
2017-11-05T18:01:44.773Z,88.90
2017-11-05T18:04:12.329Z,89.00
2017-11-05T18:06:39.876Z,89.40
2017-11-05T18:09:07.410Z,88.70
2017-11-05T18:11:34.991Z,88.80
2017-11-05T18:14:03.306Z,89.80
2017-11-05T18:16:30.985Z,89.50
2017-11-05T18:18:58.771Z,89.20
2017-11-05T18:21:26.374Z,88.30
2017-11-05T18:23:54.081Z,89.00
2017-11-05T18:26:23.103Z,90.10
2017-11-05T18:28:50.827Z,88.80
2017-11-05T18:31:18.529Z,88.40
2017-11-05T18:33:46.391Z,88.40
2017-11-05T18:36:14.286Z,88.40
2017-11-05T18:38:42.104Z,87.90
2017-11-05T18:41:09.811Z,86.50
2017-11-05T18:43:38.566Z,84.00
2017-11-05T18:46:06.262Z,83.70
2017-11-05T18:48:34.041Z,82.10
2017-11-05T18:51:01.748Z,81.90
2017-11-05T18:53:30.209Z,83.10
2017-11-05T18:55:58.580Z,81.90
2017-11-05T18:58:26.881Z,82.10
2017-11-05T19:00:54.520Z,82.10
2017-11-05T19:03:22.112Z,81.10
2017-11-05T19:05:50.441Z,81.40
2017-11-05T19:08:18.113Z,81.00
2017-11-05T19:10:45.804Z,80.60
2017-11-05T19:13:13.342Z,80.60
2017-11-05T19:15:41.375Z,82.10
2017-11-05T19:18:09.019Z,82.90
2017-11-05T19:20:37.334Z,84.80
2017-11-05T19:23:04.876Z,84.40
2017-11-05T19:25:32.456Z,84.00
2017-11-05T19:28:00.017Z,84.30
2017-11-05T19:30:28.326Z,83.70
2017-11-05T19:32:57.150Z,83.20
2017-11-05T19:35:25.498Z,84.40
2017-11-05T19:37:53.135Z,83.70
2017-11-05T19:40:20.747Z,84.70
2017-11-05T19:42:49.176Z,84.60
2017-11-05T19:45:17.477Z,84.80
2017-11-05T19:47:45.033Z,84.30
2017-11-05T19:50:12.620Z,83.70
2017-11-05T19:52:40.166Z,83.80
2017-11-05T19:55:07.844Z,83.30
2017-11-05T19:57:35.455Z,83.80
2017-11-05T20:00:03.027Z,83.40
2017-11-05T20:02:30.679Z,83.70
2017-11-05T20:04:58.226Z,83.30
2017-11-05T20:07:25.759Z,83.90
2017-11-05T20:09:54.137Z,84.20
2017-11-05T20:12:21.690Z,83.40
2017-11-05T20:14:49.223Z,83.10
2017-11-05T20:17:16.775Z,83.50
2017-11-05T20:19:44.294Z,83.50
2017-11-05T20:22:13.645Z,83.90
2017-11-05T20:24:41.448Z,83.10
2017-11-05T20:27:08.990Z,83.80
2017-11-05T20:29:36.631Z,82.80
2017-11-05T20:32:05.003Z,84.00
2017-11-05T20:34:32.546Z,83.60
2017-11-05T20:37:00.078Z,83.70
2017-11-05T20:39:28.392Z,83.40
2017-11-05T20:41:55.912Z,83.20
2017-11-05T20:44:23.444Z,83.40
2017-11-05T20:46:51.941Z,83.30
2017-11-05T20:49:21.806Z,83.40
2017-11-05T20:51:49.366Z,83.30
2017-11-05T20:54:16.941Z,83.40
2017-11-05T20:56:44.480Z,83.40
2017-11-05T20:59:12.005Z,83.90
2017-11-05T21:01:39.556Z,83.10
2017-11-05T21:04:07.265Z,83.50
2017-11-05T21:06:34.818Z,83.20
2017-11-05T21:09:02.371Z,84.10
2017-11-05T21:11:29.918Z,83.50
2017-11-05T21:13:57.447Z,82.70
2017-11-05T21:16:25.772Z,82.30
2017-11-05T21:18:53.617Z,81.50
2017-11-05T21:21:21.174Z,82.80
2017-11-05T21:23:48.736Z,81.50
2017-11-05T21:26:16.308Z,80.90
2017-11-05T21:28:43.892Z,81.70
2017-11-05T21:31:11.461Z,81.80
2017-11-05T21:33:39.012Z,81.10
2017-11-05T21:36:07.508Z,81.60
2017-11-05T21:38:35.079Z,81.60
2017-11-05T21:41:02.609Z,81.20
2017-11-05T21:43:31.160Z,80.80
2017-11-05T21:45:59.604Z,80.50
2017-11-05T21:48:27.918Z,82.10
2017-11-05T21:50:55.456Z,80.90
2017-11-05T21:53:23.032Z,81.70
2017-11-05T21:55:50.588Z,81.90
2017-11-05T21:58:18.139Z,81.70
2017-11-05T22:00:45.699Z,82.70
2017-11-05T22:03:14.017Z,82.10
2017-11-05T22:05:41.546Z,81.80
2017-11-05T22:08:09.874Z,80.40
2017-11-05T22:10:38.163Z,80.20
2017-11-05T22:13:05.700Z,79.40
2017-11-05T22:15:33.254Z,80.80
2017-11-05T22:18:00.796Z,78.30
2017-11-05T22:20:28.345Z,79.60
2017-11-05T22:22:55.901Z,80.80
2017-11-05T22:25:23.460Z,80.20
2017-11-05T22:27:51.991Z,80.20
2017-11-05T22:30:19.595Z,80.80
2017-11-05T22:32:47.126Z,80.70
2017-11-05T22:35:14.650Z,80.00
2017-11-05T22:37:42.887Z,80.90
2017-11-05T22:40:10.411Z,81.00
2017-11-05T22:42:38.722Z,80.70
2017-11-05T22:45:06.262Z,81.40
2017-11-05T22:47:33.790Z,80.60
2017-11-05T22:50:01.317Z,81.10
2017-11-05T22:52:32.232Z,81.10
2017-11-05T22:54:59.785Z,81.30
2017-11-05T22:57:27.343Z,79.70
2017-11-05T22:59:54.898Z,79.80
2017-11-05T23:02:22.420Z,81.00
2017-11-05T23:04:49.953Z,80.90
2017-11-05T23:07:18.262Z,81.80
2017-11-05T23:09:45.784Z,81.40
2017-11-05T23:12:13.308Z,79.40
2017-11-05T23:14:40.863Z,79.70
2017-11-05T23:17:08.434Z,80.40
2017-11-05T23:19:35.969Z,81.10
2017-11-05T23:22:04.278Z,81.20
2017-11-05T23:24:31.787Z,80.80
2017-11-05T23:26:59.336Z,81.00
2017-11-05T23:29:26.900Z,81.40
2017-11-05T23:31:54.419Z,81.10
2017-11-05T23:34:21.948Z,81.80
2017-11-05T23:36:49.510Z,81.90
2017-11-05T23:39:17.032Z,81.90
2017-11-05T23:41:44.560Z,81.70
2017-11-05T23:44:12.108Z,81.90
2017-11-05T23:46:39.645Z,81.80
2017-11-05T23:49:07.173Z,81.40
2017-11-05T23:51:34.719Z,81.10
2017-11-05T23:54:02.235Z,81.40
2017-11-05T23:56:29.764Z,81.00
2017-11-05T23:58:57.322Z,80.60
